Time;durP1;ratioP1;P1;durP2;ratioP2;P2;SDS_P1;SDS_P2;PMS_P1;PMS_P2;Temp;Humidity;BMP_temperature;BMP_pressure;BME280_temperature;BME280_humidity;BME280_pressure;Samples;Min_cycle;Max_cycle;Signal;HPM_P1;HPM_P2
2023/07/04 00:01:24;;;;;;;;;10.25;10.25;;;;;25.67;51.28;100725.19;146613;621;47012;-65
2023/07/04 00:04:19;;;;;;;;;13.50;11.25;;;;;25.64;51.28;100721.66;146619;640;46010;-66
2023/07/04 00:07:13;;;;;;;;;15.00;13.25;;;;;25.60;51.13;100714.63;146613;696;46918;-66
2023/07/04 00:10:06;;;;;;;;;12.67;11.00;;;;;25.53;51.51;100711.16;146619;565;46021;-67
2023/07/04 00:12:59;;;;;;;;;13.00;11.00;;;;;25.47;51.90;100717.41;146614;669;47014;-62
2023/07/04 00:15:57;;;;;;;;;16.00;13.25;;;;;25.43;51.60;100721.00;146618;598;46010;-62
2023/07/04 00:19:03;;;;;;;;;13.25;11.00;;;;;25.41;52.47;100712.16;146616;674;47016;-63
2023/07/04 00:22:10;;;;;;;;;12.25;12.00;;;;;25.45;52.82;100711.25;146616;577;47020;-63
2023/07/04 00:25:11;;;;;;;;;11.00;10.25;;;;;25.51;52.59;100710.28;146616;669;46017;-63
2023/07/04 00:28:08;;;;;;;;;12.00;12.00;;;;;25.52;52.30;100714.72;146619;655;46010;-63
2023/07/04 00:31:02;;;;;;;;;11.00;9.25;;;;;25.49;52.76;100709.44;146609;642;46016;-63
2023/07/04 00:33:59;;;;;;;;;11.00;10.50;;;;;25.47;53.07;100705.91;146612;678;46915;-63
2023/07/04 00:37:02;;;;;;;;;12.50;12.00;;;;;25.46;53.18;100705.03;146617;717;46016;-63
2023/07/04 00:39:54;;;;;;;;;10.25;9.00;;;;;25.45;53.10;100703.28;146614;671;46021;-63
2023/07/04 00:42:45;;;;;;;;;14.25;12.00;;;;;25.45;52.66;100715.66;146616;602;47012;-63
2023/07/04 00:45:56;;;;;;;;;13.75;13.00;;;;;25.46;53.16;100701.50;146618;695;47010;-63
2023/07/04 00:48:51;;;;;;;;;11.67;10.00;;;;;25.46;53.25;100696.19;146618;602;46012;-63
2023/07/04 00:51:47;;;;;;;;;11.33;10.67;;;;;25.45;52.93;100697.06;146618;593;48010;-64
2023/07/04 00:55:15;;;;;;;;;12.25;11.25;;;;;25.35;52.70;100693.63;146619;649;46027;-62
2023/07/04 00:58:20;;;;;;;;;12.00;10.50;;;;;25.27;52.40;100690.19;146621;581;46020;-63
2023/07/04 01:01:19;;;;;;;;;8.00;7.00;;;;;25.19;52.35;100690.25;146620;608;46012;-63
2023/07/04 01:04:15;;;;;;;;;11.50;11.50;;;;;25.19;53.19;100687.59;146619;569;46021;-63
2023/07/04 01:07:58;;;;;;;;;11.00;10.50;;;;;25.24;52.97;100693.75;146616;674;46016;-64
2023/07/04 01:10:56;;;;;;;;;12.00;11.00;;;;;25.26;52.67;100701.69;146621;679;47010;-64
2023/07/04 01:13:55;;;;;;;;;13.25;11.25;;;;;25.22;53.02;100700.84;146617;670;47012;-64
2023/07/04 01:16:50;;;;;;;;;14.25;11.25;;;;;25.16;53.09;100694.72;146621;597;47010;-63
2023/07/04 01:19:51;;;;;;;;;12.00;11.25;;;;;25.06;53.37;100694.75;146618;716;46016;-63
2023/07/04 01:23:24;;;;;;;;;12.00;11.00;;;;;22.47;53.50;100275.44;146620;682;46020;-64
2023/07/04 01:26:50;;;;;;;;;;;;;;;;;;;;;
2023/07/04 01:29:43;;;;;;;;;13.50;12.75;;;;;24.80;54.65;100697.63;146618;701;46020;-64
2023/07/04 01:32:38;;;;;;;;;11.75;11.75;;;;;24.76;54.92;100687.94;146618;600;46012;-64
2023/07/04 01:35:34;;;;;;;;;13.50;11.25;;;;;24.75;54.55;100695.91;146620;565;46020;-64
2023/07/04 01:38:40;;;;;;;;;14.50;12.00;;;;;24.65;54.77;100688.03;146618;681;46016;-63
2023/07/04 01:41:43;;;;;;;;;13.00;12.50;;;;;24.56;55.24;100693.38;146617;581;46020;-64
2023/07/04 01:44:47;;;;;;;;;15.75;14.00;;;;;24.53;55.19;100703.12;146617;565;46014;-63
2023/07/04 01:47:42;;;;;;;;;13.75;12.00;;;;;24.50;55.77;100700.50;146623;607;46011;-63
2023/07/04 01:50:39;;;;;;;;;13.75;11.50;;;;;24.50;55.48;100708.44;146616;703;47014;-63
2023/07/04 01:53:32;;;;;;;;;15.25;13.50;;;;;24.48;55.49;100702.25;146621;583;47013;-63
2023/07/04 01:56:25;;;;;;;;;16.25;13.75;;;;;24.39;55.71;100706.72;146617;602;48012;-63
2023/07/04 01:59:24;;;;;;;;;13.75;13.25;;;;;24.30;56.09;100704.13;146620;668;47010;-63
2023/07/04 02:02:19;;;;;;;;;13.25;12.00;;;;;24.19;56.06;100714.75;146616;616;46915;-64
2023/07/04 02:05:33;;;;;;;;;13.25;12.25;;;;;24.13;56.29;100713.91;146621;569;46020;-64
2023/07/04 02:08:25;;;;;;;;;12.00;11.00;;;;;24.09;56.54;100714.81;146616;615;47012;-64
2023/07/04 02:11:32;;;;;;;;;13.00;13.00;;;;;24.06;56.15;100712.19;146623;682;46010;-64
2023/07/04 02:14:40;;;;;;;;;;;;;;;;;;;;;
2023/07/04 02:17:42;;;;;;;;;11.00;10.75;;;;;24.16;56.04;100712.13;146623;710;46010;-64
2023/07/04 02:20:42;;;;;;;;;12.00;11.75;;;;;24.16;56.20;100720.06;146618;565;46918;-65
2023/07/04 02:23:35;;;;;;;;;17.00;14.50;;;;;24.11;56.56;100727.19;146618;617;47020;-65
2023/07/04 02:26:34;;;;;;;;;14.00;12.25;;;;;24.08;56.45;100726.28;146614;596;46016;-65
2023/07/04 02:29:29;;;;;;;;;13.75;11.75;;;;;24.03;56.63;100720.12;146616;565;47020;-64
2023/07/04 02:32:21;;;;;;;;;12.50;10.25;;;;;24.01;56.79;100719.25;146618;564;46919;-65
2023/07/04 02:35:26;;;;;;;;;14.25;13.25;;;;;23.98;56.84;100726.31;146619;691;48012;-65
2023/07/04 02:38:28;;;;;;;;;12.75;10.75;;;;;23.98;57.58;100726.31;146617;585;46017;-64
2023/07/04 02:41:26;;;;;;;;;16.50;14.75;;;;;23.97;58.12;100724.56;146620;592;46020;-64
2023/07/04 02:44:23;;;;;;;;;14.25;13.00;;;;;24.00;57.91;100730.75;146616;618;47012;-64
2023/07/04 02:47:26;;;;;;;;;13.75;13.25;;;;;24.04;58.24;100725.41;146619;613;46021;-64
2023/07/04 02:50:26;;;;;;;;;14.25;13.25;;;;;24.00;59.32;100714.84;146618;577;46016;-64
2023/07/04 02:53:22;;;;;;;;;13.50;13.00;;;;;24.04;58.72;100719.25;146619;641;46021;-65
2023/07/04 02:56:21;;;;;;;;;14.75;13.50;;;;;24.08;58.91;100721.87;146621;642;46034;-64
2023/07/04 02:59:28;;;;;;;;;11.75;10.25;;;;;24.18;58.27;100728.03;146621;565;46010;-64
2023/07/04 03:02:39;;;;;;;;;14.25;11.75;;;;;21.54;57.21;100257.19;146617;662;47013;-64
2023/07/04 03:05:34;;;;;;;;;14.75;13.25;;;;;24.27;58.24;100735.03;146619;569;47010;-66
2023/07/04 03:08:39;;;;;;;;;14.75;10.75;;;;;22.21;57.44;100365.34;146618;564;46013;-64
2023/07/04 03:11:36;;;;;;;;;12.00;12.00;;;;;24.47;58.01;100721.72;146621;682;46020;-64
2023/07/04 03:14:37;;;;;;;;;13.25;12.50;;;;;24.51;57.42;100731.41;146620;597;46032;-62
2023/07/04 03:17:43;;;;;;;;;13.50;13.25;;;;;24.44;57.20;100730.56;146623;691;46021;-64
2023/07/04 03:20:39;;;;;;;;;15.75;14.25;;;;;24.33;57.49;100725.31;146615;641;47012;-63
2023/07/04 03:23:37;;;;;;;;;13.25;12.75;;;;;24.28;58.06;100732.37;146618;601;46012;-63
2023/07/04 03:26:31;;;;;;;;;15.50;12.50;;;;;24.27;57.94;100738.59;146619;571;46012;-62
2023/07/04 03:29:29;;;;;;;;;12.50;11.75;;;;;24.30;57.79;100735.91;146622;643;45021;-63
2023/07/04 03:32:33;;;;;;;;;15.00;14.50;;;;;24.34;57.66;100734.12;146620;614;46012;-63
2023/07/04 03:35:34;;;;;;;;;14.75;13.50;;;;;24.41;57.58;100736.75;146619;573;46020;-64
2023/07/04 03:38:36;;;;;;;;;12.75;12.75;;;;;24.46;56.94;100741.19;146618;626;46017;-64
2023/07/04 03:41:28;;;;;;;;;12.50;11.25;;;;;24.43;57.19;100748.25;146621;602;46020;-64
2023/07/04 03:44:24;;;;;;;;;17.25;14.50;;;;;24.40;57.19;100745.56;146614;678;46029;-64
2023/07/04 03:47:23;;;;;;;;;13.50;13.00;;;;;24.42;57.61;100746.50;146621;567;46020;-65
2023/07/04 03:50:21;;;;;;;;;15.00;13.50;;;;;24.42;57.49;100748.22;146616;633;47012;-64
2023/07/04 03:53:20;;;;;;;;;13.25;13.00;;;;;24.40;57.15;100750.00;146619;633;46021;-66
2023/07/04 03:56:15;;;;;;;;;13.75;12.00;;;;;24.42;57.78;100754.44;146616;576;46016;-65
2023/07/04 03:59:16;;;;;;;;;15.75;14.25;;;;;24.49;58.16;100757.94;146620;622;46029;-65
2023/07/04 04:02:23;;;;;;;;;16.00;14.50;;;;;24.58;57.23;100759.63;146617;744;46016;-65
2023/07/04 04:05:20;;;;;;;;;15.00;12.00;;;;;24.62;58.26;100764.06;146618;637;47020;-66
2023/07/04 04:08:18;;;;;;;;;16.75;14.00;;;;;24.69;58.57;100752.50;146617;586;46016;-66
2023/07/04 04:11:14;;;;;;;;;16.50;16.00;;;;;24.76;58.07;100756.00;146616;577;46020;-65
2023/07/04 04:14:06;;;;;;;;;15.25;14.25;;;;;24.75;58.03;100757.78;146616;675;46014;-66
2023/07/04 04:17:09;;;;;;;;;16.25;14.25;;;;;24.81;57.18;100760.38;146618;676;46021;-66
2023/07/04 04:20:09;;;;;;;;;14.75;14.00;;;;;24.91;57.97;100762.97;146616;620;46918;-65
2023/07/04 04:23:18;;;;;;;;;14.25;13.50;;;;;22.44;56.69;100311.56;146618;576;46010;-64
2023/07/04 04:26:28;;;;;;;;;16.00;13.75;;;;;25.15;56.97;100754.88;146616;586;47012;-65
2023/07/04 04:29:29;;;;;;;;;18.25;15.50;;;;;25.32;57.90;100755.59;146618;657;46011;-65
2023/07/04 04:32:27;;;;;;;;;22.50;22.25;;;;;25.52;58.29;100750.09;146615;618;47016;-64
2023/07/04 04:35:19;;;;;;;;;23.75;21.50;;;;;25.76;58.69;100758.69;146618;757;47010;-64
2023/07/04 04:38:18;;;;;;;;;14.25;12.00;;;;;26.02;58.31;100753.16;146617;577;46017;-65
2023/07/04 04:41:12;;;;;;;;;13.25;12.25;;;;;26.27;57.71;100759.03;146621;603;46010;-64
2023/07/04 04:44:18;;;;;;;;;14.25;13.75;;;;;24.14;56.07;100351.00;146614;680;48012;-64
2023/07/04 04:47:14;;;;;;;;;16.25;15.50;;;;;26.74;55.24;100756.66;146616;606;46010;-64
2023/07/04 04:50:19;;;;;;;;;15.25;15.00;;;;;24.52;54.86;100340.91;146620;573;46012;-64
2023/07/04 04:53:45;;;;;;;;;;;;;;;;;;;;;
2023/07/04 04:56:37;;;;;;;;;19.75;15.00;;;;;27.23;54.37;100761.22;146617;717;46014;-64
2023/07/04 04:59:31;;;;;;;;;13.75;12.75;;;;;27.39;53.93;100758.28;146615;641;47021;-65
2023/07/04 05:02:23;;;;;;;;;17.33;15.33;;;;;27.54;53.30;100758.91;146615;692;46914;-66
2023/07/04 05:05:19;;;;;;;;;17.00;14.00;;;;;27.66;53.89;100756.00;146615;684;47020;-65
2023/07/04 05:08:13;;;;;;;;;12.75;12.75;;;;;27.79;53.35;100770.91;146617;612;46919;-64
2023/07/04 05:11:09;;;;;;;;;14.00;13.25;;;;;27.94;52.72;100766.16;146617;569;46010;-65
2023/07/04 05:14:08;;;;;;;;;13.00;12.50;;;;;28.05;52.39;100761.53;146618;683;46012;-65
2023/07/04 05:17:12;;;;;;;;;14.25;12.00;;;;;28.15;51.93;100759.53;146612;613;46020;-66
2023/07/04 05:20:15;;;;;;;;;16.50;15.50;;;;;28.26;51.40;100754.88;146616;641;46918;-64
2023/07/04 05:23:14;;;;;;;;;19.75;15.75;;;;;28.42;52.12;100758.13;146618;564;46010;-66
2023/07/04 05:26:13;;;;;;;;;20.00;16.75;;;;;28.56;50.47;100769.34;146618;599;46918;-68
2023/07/04 05:29:14;;;;;;;;;14.25;13.50;;;;;28.69;50.97;100767.25;146619;668;47010;-64
2023/07/04 05:32:07;;;;;;;;;18.25;14.75;;;;;28.82;50.97;100770.53;146615;654;47918;-64
2023/07/04 05:35:04;;;;;;;;;16.75;15.75;;;;;28.93;50.21;100773.84;146615;584;46020;-65
2023/07/04 05:38:13;;;;;;;;;19.25;17.50;;;;;29.00;50.52;100780.78;146616;604;46017;-64
2023/07/04 05:41:07;;;;;;;;;16.25;16.25;;;;;29.04;50.86;100782.50;146621;659;46020;-65
2023/07/04 05:44:06;;;;;;;;;17.00;15.50;;;;;29.10;50.92;100776.16;146618;569;46035;-66
2023/07/04 05:47:17;;;;;;;;;17.75;16.50;;;;;29.16;50.36;100776.88;146617;589;47010;-65
2023/07/04 05:50:18;;;;;;;;;16.00;16.00;;;;;29.25;51.57;100783.75;146618;574;46918;-66
2023/07/04 05:53:16;;;;;;;;;16.00;15.00;;;;;29.36;52.01;100784.38;146620;578;47010;-66
2023/07/04 05:56:26;;;;;;;;;17.50;13.25;;;;;29.39;51.54;100792.31;146616;577;47014;-66
2023/07/04 05:59:28;;;;;;;;;15.25;15.25;;;;;29.31;52.65;100790.72;146621;650;46021;-66
2023/07/04 06:02:24;;;;;;;;;14.75;13.25;;;;;29.35;52.62;100790.63;146618;570;46012;-66
2023/07/04 06:05:05;;;;;;;;;14.00;13.00;;;;;29.45;53.83;100792.16;146700;564;46023;-65
2023/07/04 06:07:57;;;;;;;;;15.75;14.75;;;;;29.57;51.82;100798.09;146613;645;49016;-67
2023/07/04 06:10:50;;;;;;;;;14.50;12.75;;;;;29.62;52.28;100801.53;146615;632;47021;-65
2023/07/04 06:13:46;;;;;;;;;18.75;16.75;;;;;29.67;51.48;100799.63;146613;563;46016;-65
2023/07/04 06:16:39;;;;;;;;;17.75;14.75;;;;;29.74;51.22;100801.22;146620;569;46020;-65
2023/07/04 06:19:33;;;;;;;;;13.00;11.00;;;;;29.81;50.88;100800.13;146615;636;46918;-65
2023/07/04 06:22:47;;;;;;;;;14.25;13.75;;;;;29.92;49.36;100800.72;146619;573;46010;-64
2023/07/04 06:25:51;;;;;;;;;11.50;10.75;;;;;29.95;46.66;100806.91;146616;681;46017;-66
2023/07/04 06:28:47;;;;;;;;;12.33;11.00;;;;;29.87;47.45;100801.75;146617;653;47010;-66
2023/07/04 06:32:08;;;;;;;;;15.75;13.75;;;;;29.85;48.12;100806.28;146615;671;46016;-65
2023/07/04 06:35:12;;;;;;;;;14.00;12.00;;;;;29.85;47.52;100801.81;146619;571;47012;-65
2023/07/04 06:38:07;;;;;;;;;10.25;10.25;;;;;29.95;48.64;100809.59;146617;724;46483;-66
2023/07/04 06:41:18;;;;;;;;;15.00;13.00;;;;;29.98;47.17;100810.37;146615;693;46021;-66
2023/07/04 06:44:20;;;;;;;;;14.00;13.25;;;;;29.83;47.51;100809.00;146613;681;47016;-66
2023/07/04 06:47:14;;;;;;;;;12.50;11.00;;;;;29.78;50.51;100794.88;146619;569;46012;-67
2023/07/04 06:50:25;;;;;;;;;15.75;15.75;;;;;29.84;50.76;100801.84;146615;583;46016;-65
2023/07/04 06:53:32;;;;;;;;;13.25;13.25;;;;;29.92;51.24;100806.06;146620;668;46020;-66
2023/07/04 06:56:30;;;;;;;;;16.00;13.25;;;;;29.99;52.08;100800.56;146614;641;46017;-65
2023/07/04 06:59:33;;;;;;;;;15.00;14.00;;;;;30.15;51.85;100796.50;146615;660;46020;-65
2023/07/04 07:02:29;;;;;;;;;17.00;15.50;;;;;30.37;49.98;100788.78;146611;677;46016;-65
2023/07/04 07:05:24;;;;;;;;;14.00;12.50;;;;;30.57;50.23;100788.19;146607;573;46021;-65
2023/07/04 07:08:23;;;;;;;;;13.25;11.25;;;;;30.73;48.18;100792.13;146604;563;47012;-67
2023/07/04 07:11:28;;;;;;;;;16.50;14.25;;;;;30.89;48.56;100789.87;146608;641;46010;-65
2023/07/04 07:14:34;;;;;;;;;15.75;14.50;;;;;31.03;48.56;100798.38;146603;627;46012;-66
2023/07/04 07:17:32;;;;;;;;;15.50;15.25;;;;;31.10;48.75;100793.69;146606;566;47011;-67
2023/07/04 07:20:25;;;;;;;;;14.00;13.75;;;;;31.15;48.33;100796.19;146603;586;47012;-66
2023/07/04 07:23:27;;;;;;;;;16.50;15.00;;;;;31.22;46.39;100781.69;146608;569;46012;-67
2023/07/04 07:26:25;;;;;;;;;10.00;10.00;;;;;31.28;46.90;100781.47;146605;659;46017;-66
2023/07/04 07:29:20;;;;;;;;;14.33;13.00;;;;;31.35;45.23;100782.19;146608;680;46012;-65
2023/07/04 07:32:20;;;;;;;;;14.00;12.67;;;;;31.40;43.33;100790.91;146604;608;46017;-66
2023/07/04 07:35:12;;;;;;;;;13.67;13.00;;;;;31.44;43.01;100787.22;146605;594;47010;-65
2023/07/04 07:38:17;;;;;;;;;10.50;9.50;;;;;30.34;43.80;100583.78;146606;565;47012;-66
2023/07/04 07:41:23;;;;;;;;;17.00;14.00;;;;;31.54;43.99;100785.97;146616;633;46029;-65
2023/07/04 07:44:20;;;;;;;;;13.00;12.00;;;;;31.62;42.87;100783.00;146603;563;47012;-67
2023/07/04 07:47:21;;;;;;;;;14.33;12.00;;;;;31.72;41.89;100779.97;146609;573;46028;-65
2023/07/04 07:50:16;;;;;;;;;16.67;14.00;;;;;31.76;42.38;100778.06;146604;622;47016;-66
2023/07/04 07:53:22;;;;;;;;;12.33;11.67;;;;;31.87;42.48;100785.69;146611;602;47020;-66
2023/07/04 07:56:17;;;;;;;;;15.00;14.33;;;;;31.99;42.60;100787.97;146607;676;46016;-67
2023/07/04 07:59:21;;;;;;;;;12.00;11.75;;;;;30.90;43.14;100582.78;146611;645;46010;-66
2023/07/04 08:02:21;;;;;;;;;13.00;12.00;;;;;32.19;42.47;100788.12;146605;580;47012;-66
2023/07/04 08:05:16;;;;;;;;;14.67;12.33;;;;;32.30;40.56;100793.06;146610;644;47029;-65
2023/07/04 08:08:17;;;;;;;;;12.33;11.67;;;;;32.38;41.75;100799.03;146603;576;47012;-66
2023/07/04 08:11:35;;;;;;;;;13.67;12.33;;;;;31.30;41.91;100597.44;146608;648;46021;-65
2023/07/04 08:14:30;;;;;;;;;14.00;11.67;;;;;32.49;40.07;100795.06;146605;570;47025;-66
2023/07/04 08:17:31;;;;;;;;;14.00;12.33;;;;;32.52;39.96;100800.31;146612;572;46021;-65
2023/07/04 08:20:30;;;;;;;;;14.67;12.00;;;;;32.53;39.80;100796.72;146602;589;47012;-67
2023/07/04 08:23:33;;;;;;;;;11.33;9.67;;;;;32.52;40.32;100801.19;146612;598;46020;-65
2023/07/04 08:26:32;;;;;;;;;15.67;11.33;;;;;32.51;41.40;100799.47;146611;627;46016;-66
2023/07/04 08:29:29;;;;;;;;;11.67;11.67;;;;;32.47;39.96;100796.97;146611;603;46028;-66
2023/07/04 08:32:33;;;;;;;;;11.00;10.67;;;;;32.42;41.71;100797.97;146605;566;47012;-68
2023/07/04 08:35:37;;;;;;;;;12.67;12.00;;;;;32.43;41.56;100801.50;146607;607;47010;-65
2023/07/04 08:38:36;;;;;;;;;11.33;11.33;;;;;32.49;40.99;100806.69;146608;663;46017;-65
2023/07/04 08:42:07;;;;;;;;;9.00;9.00;;;;;31.42;42.42;100606.87;146612;588;46020;-67
2023/07/04 08:45:10;;;;;;;;;11.00;10.33;;;;;32.57;39.68;100798.34;146611;689;46016;-65
2023/07/04 08:48:03;;;;;;;;;15.00;12.33;;;;;32.48;38.79;100796.87;146609;580;46020;-65
2023/07/04 08:51:06;;;;;;;;;13.00;11.33;;;;;32.37;39.80;100807.16;146606;566;46016;-66
2023/07/04 08:54:14;;;;;;;;;13.33;11.67;;;;;32.29;39.66;100802.06;146611;617;46021;-65
2023/07/04 08:57:58;;;;;;;;;13.00;12.00;;;;;31.16;42.55;100607.81;146604;668;47016;-66
2023/07/04 09:01:13;;;;;;;;;14.33;12.33;;;;;32.37;40.96;100807.16;146611;662;46021;-66
2023/07/04 09:04:16;;;;;;;;;12.67;11.33;;;;;32.50;39.14;100803.09;146608;575;46016;-68
2023/07/04 09:07:42;;;;;;;;;10.33;9.00;;;;;32.57;40.78;100795.66;146612;588;47020;-65
2023/07/04 09:10:52;;;;;;;;;13.00;12.00;;;;;32.58;40.08;100786.66;146616;636;46017;-67
2023/07/04 09:14:16;;;;;;;;;14.25;12.25;;;;;31.26;40.47;100559.19;146613;659;47047;-66
2023/07/04 09:17:24;;;;;;;;;11.33;10.33;;;;;32.73;39.80;100801.31;146608;569;46016;-65
2023/07/04 09:20:17;;;;;;;;;10.33;10.33;;;;;32.81;39.61;100797.38;146616;563;46020;-65
2023/07/04 09:23:27;;;;;;;;;14.67;12.00;;;;;32.94;41.36;100797.75;146611;620;46918;-65
2023/07/04 09:26:25;;;;;;;;;11.75;11.00;;;;;33.02;40.21;100795.69;146614;623;47010;-66
2023/07/04 09:29:24;;;;;;;;;12.75;12.00;;;;;33.10;40.13;100806.97;146610;687;46016;-66
2023/07/04 09:32:36;;;;;;;;;11.50;11.50;;;;;33.10;39.93;100792.66;146614;668;46021;-67
2023/07/04 09:35:28;;;;;;;;;14.00;12.75;;;;;32.98;40.21;100801.22;146611;608;46014;-66
2023/07/04 09:38:49;;;;;;;;;13.00;13.00;;;;;32.92;41.33;100796.06;146612;684;46020;-65
2023/07/04 09:41:49;;;;;;;;;13.00;12.33;;;;;32.92;41.31;100794.25;146611;573;47012;-65
2023/07/04 09:45:11;;;;;;;;;14.50;12.00;;;;;31.82;41.12;100598.19;146609;563;46020;-65
2023/07/04 09:48:13;;;;;;;;;12.00;12.00;;;;;33.03;42.20;100791.19;146611;694;46017;-66
2023/07/04 09:51:35;;;;;;;;;12.50;12.50;;;;;33.03;42.03;100783.13;146615;590;46020;-65
2023/07/04 09:54:27;;;;;;;;;13.75;12.25;;;;;32.97;41.29;100784.25;146610;573;46017;-65
2023/07/04 09:57:32;;;;;;;;;14.00;13.25;;;;;32.89;42.04;100772.87;146612;569;46020;-65
2023/07/04 10:00:30;;;;;;;;;15.75;14.25;;;;;32.94;41.96;100778.09;146607;724;46013;-65
2023/07/04 10:03:33;;;;;;;;;13.00;12.00;;;;;32.95;41.85;100772.63;146616;625;46010;-66
2023/07/04 10:06:38;;;;;;;;;12.00;11.67;;;;;32.99;41.98;100779.69;146609;654;46016;-65
2023/07/04 10:09:37;;;;;;;;;13.00;12.00;;;;;32.97;41.40;100769.91;146617;723;46012;-66
2023/07/04 10:12:38;;;;;;;;;12.00;11.33;;;;;32.99;41.13;100771.63;146612;607;46016;-66
2023/07/04 10:15:42;;;;;;;;;12.25;12.25;;;;;32.98;42.11;100769.88;146617;595;47010;-66
2023/07/04 10:18:43;;;;;;;;;14.00;14.00;;;;;32.98;43.11;100775.25;146610;582;47012;-67
2023/07/04 10:22:05;;;;;;;;;15.00;14.00;;;;;32.96;42.14;100770.81;146610;604;46020;-65
2023/07/04 10:25:17;;;;;;;;;12.25;10.75;;;;;32.89;42.33;100767.53;146610;631;46016;-67
2023/07/04 10:28:19;;;;;;;;;14.25;13.25;;;;;32.86;41.80;100773.00;146612;661;47010;-65
2023/07/04 10:31:31;;;;;;;;;9.33;9.00;;;;;32.87;43.19;100759.53;146606;636;46016;-65
2023/07/04 10:34:32;;;;;;;;;10.50;10.00;;;;;32.89;42.34;100756.78;146618;572;46051;-66
2023/07/04 10:37:57;;;;;;;;;14.50;13.50;;;;;32.88;42.80;100752.34;146609;686;46016;-66
2023/07/04 10:40:54;;;;;;;;;10.67;10.00;;;;;32.88;41.21;100752.34;146614;574;47020;-65
2023/07/04 10:43:53;;;;;;;;;13.00;12.75;;;;;32.76;42.36;100747.47;146610;718;47012;-66
2023/07/04 10:47:26;;;;;;;;;14.50;12.75;;;;;31.75;42.69;100607.41;146614;570;46011;-65
2023/07/04 10:50:32;;;;;;;;;13.33;12.33;;;;;32.57;43.21;100745.53;146611;687;46016;-65
2023/07/04 10:53:24;;;;;;;;;15.50;12.25;;;;;32.65;42.04;100748.78;146613;595;46029;-64
2023/07/04 10:56:31;;;;;;;;;17.75;15.75;;;;;32.71;42.61;100738.72;146613;646;46012;-65
2023/07/04 10:59:34;;;;;;;;;10.33;10.33;;;;;32.77;42.76;100742.03;146617;578;46012;-64
2023/07/04 11:02:41;;;;;;;;;14.50;13.00;;;;;32.84;43.19;100738.19;146611;673;46917;-65
2023/07/04 11:06:08;;;;;;;;;13.75;11.75;;;;;32.90;43.31;100726.31;146619;563;46033;-65
2023/07/04 11:09:09;;;;;;;;;14.25;14.25;;;;;33.00;43.24;100725.03;146615;628;47013;-65
2023/07/04 11:12:29;;;;;;;;;11.25;10.75;;;;;33.07;42.65;100722.94;146614;606;46010;-64
2023/07/04 11:15:56;;;;;;;;;16.00;13.00;;;;;31.98;43.18;100532.31;146613;692;46017;-65
2023/07/04 11:19:05;;;;;;;;;11.50;10.75;;;;;33.15;42.08;100714.53;146614;666;47020;-65
2023/07/04 11:22:23;;;;;;;;;15.25;14.00;;;;;32.23;44.11;100551.91;146613;640;46016;-65
2023/07/04 11:26:07;;;;;;;;;13.50;12.75;;;;;31.95;43.22;100502.06;146617;689;46010;-66
2023/07/04 11:29:24;;;;;;;;;15.00;12.67;;;;;33.12;42.05;100707.50;146611;734;46012;-65
2023/07/04 11:32:21;;;;;;;;;14.75;12.50;;;;;33.15;42.07;100719.91;146619;688;46020;-65
2023/07/04 11:35:25;;;;;;;;;12.50;12.25;;;;;33.21;43.47;100714.28;146611;727;46014;-65
2023/07/04 11:38:45;;;;;;;;;12.75;10.50;;;;;32.16;42.92;100522.66;146617;619;46021;-65
2023/07/04 11:41:46;;;;;;;;;16.50;14.00;;;;;33.34;42.54;100716.38;146615;613;47014;-65
2023/07/04 11:45:09;;;;;;;;;16.25;13.50;;;;;33.32;42.97;100712.03;146619;570;46011;-64
2023/07/04 11:48:16;;;;;;;;;11.50;7.75;;;;;33.22;41.72;100706.16;146616;641;46016;-65
2023/07/04 11:51:19;;;;;;;;;10.50;9.75;;;;;33.15;42.72;100701.13;146621;669;46020;-63
2023/07/04 11:54:15;;;;;;;;;14.00;13.00;;;;;33.07;43.98;100696.94;146613;687;46017;-65
2023/07/04 11:57:23;;;;;;;;;11.75;11.75;;;;;33.04;43.83;100696.22;146607;657;47046;-65
2023/07/04 12:01:07;;;;;;;;;13.75;12.50;;;;;31.93;44.37;100494.09;146615;590;46016;-64
2023/07/04 12:04:08;;;;;;;;;16.50;14.00;;;;;32.99;44.75;100688.37;146613;670;46021;-66
2023/07/04 12:08:01;;;;;;;;;14.25;12.00;;;;;31.75;44.46;100487.66;146607;686;46012;-65
2023/07/04 12:11:16;;;;;;;;;12.50;12.00;;;;;31.98;44.16;100537.69;146612;580;46020;-64
2023/07/04 12:14:18;;;;;;;;;13.50;11.75;;;;;32.87;43.52;100694.22;146606;614;46016;-64
2023/07/04 12:17:21;;;;;;;;;11.25;9.00;;;;;32.91;44.98;100673.47;146612;677;46021;-64
2023/07/04 12:20:23;;;;;;;;;14.50;14.00;;;;;32.94;44.76;100674.22;146612;579;46016;-64
2023/07/04 12:23:23;;;;;;;;;12.75;12.75;;;;;32.97;43.85;100676.81;146612;667;45021;-64
2023/07/04 12:26:33;;;;;;;;;16.00;13.75;;;;;33.00;44.26;100679.34;146609;710;47016;-64
2023/07/04 12:29:31;;;;;;;;;14.00;11.50;;;;;32.99;43.27;100677.63;146612;570;46010;-64
2023/07/04 12:32:35;;;;;;;;;14.00;13.00;;;;;33.00;42.62;100665.06;146611;609;46016;-64
2023/07/04 12:35:41;;;;;;;;;13.00;13.00;;;;;33.03;42.94;100668.47;146607;593;47010;-65
2023/07/04 12:38:39;;;;;;;;;14.67;12.67;;;;;33.02;41.94;100664.06;146610;623;47012;-64
2023/07/04 12:41:40;;;;;;;;;15.00;12.75;;;;;33.04;41.31;100661.28;146611;658;47010;-64
2023/07/04 12:44:57;;;;;;;;;13.25;12.25;;;;;33.07;41.16;100653.97;146603;630;47012;-65
2023/07/04 12:47:58;;;;;;;;;14.00;11.75;;;;;33.04;41.21;100664.84;146610;671;47010;-65
2023/07/04 12:51:10;;;;;;;;;;;;;;;;;;;;;
2023/07/04 12:54:17;;;;;;;;;13.50;12.50;;;;;33.13;41.12;100646.59;146615;622;46020;-65
2023/07/04 12:57:23;;;;;;;;;12.25;11.25;;;;;33.21;41.18;100648.00;146608;620;46035;-65
2023/07/04 13:00:39;;;;;;;;;13.50;12.50;;;;;33.21;40.20;100655.16;146608;564;46011;-65
2023/07/04 13:04:10;;;;;;;;;14.75;12.75;;;;;31.25;42.69;100323.53;146608;611;46030;-65
2023/07/04 13:07:22;;;;;;;;;10.67;9.67;;;;;33.14;41.56;100645.66;146610;608;47010;-64
2023/07/04 13:10:26;;;;;;;;;11.50;10.75;;;;;33.10;42.08;100637.72;146610;569;47016;-64
2023/07/04 13:13:41;;;;;;;;;14.00;13.25;;;;;33.06;42.41;100633.44;146611;650;46020;-64
2023/07/04 13:16:36;;;;;;;;;12.50;12.25;;;;;33.00;42.18;100636.38;146608;577;46027;-64
2023/07/04 13:19:41;;;;;;;;;14.00;13.25;;;;;32.97;42.09;100647.25;146613;642;46020;-65
2023/07/04 13:22:34;;;;;;;;;15.00;11.50;;;;;32.87;42.13;100635.12;146609;612;47012;-64
2023/07/04 13:25:53;;;;;;;;;15.00;11.75;;;;;32.87;43.77;100627.09;146610;708;46020;-64
2023/07/04 13:29:04;;;;;;;;;13.25;12.50;;;;;31.82;43.37;100429.28;146608;618;46016;-65
2023/07/04 13:31:58;;;;;;;;;11.50;11.50;;;;;32.94;41.92;100623.19;146611;683;46021;-64
2023/07/04 13:34:51;;;;;;;;;12.33;11.33;;;;;32.91;42.41;100617.94;146610;644;46014;-64
2023/07/04 13:37:47;;;;;;;;;15.50;12.75;;;;;32.99;42.69;100612.25;146614;579;46021;-65
2023/07/04 13:40:42;;;;;;;;;12.67;12.00;;;;;33.02;43.04;100609.44;146609;622;46035;-65
2023/07/04 13:43:44;;;;;;;;;14.75;14.00;;;;;33.02;43.72;100614.81;146610;691;46020;-65
2023/07/04 13:46:43;;;;;;;;;11.00;11.00;;;;;33.03;43.53;100600.47;146611;668;46017;-64
2023/07/04 13:49:37;;;;;;;;;13.33;13.00;;;;;33.03;43.77;100598.62;146614;569;47010;-65
2023/07/04 13:52:38;;;;;;;;;13.33;11.00;;;;;33.04;42.36;100589.63;146610;717;46013;-65
2023/07/04 13:55:40;;;;;;;;;13.50;12.50;;;;;32.98;43.00;100597.09;146613;606;46010;-65
2023/07/04 13:58:33;;;;;;;;;13.00;13.00;;;;;32.94;43.82;100604.38;146611;572;46012;-64